Weather observations for the past three days for
Willimantic, Windham Airport
Imperial (Metric)
Date Time (edt) Wind (mph) Vis. (mi.) Weather Sky Cond. Temperature (ºF) Relative Humidity Wind Chill (°F) Heat Index (°F) Pressure Precipitation (in)
Air Dwpt 6 hour altimeter (in) sea level (mb) 1 hr 3 hr 6 hr
Max. Min.
03 11:52 Vrbl 6 10.00 Overcast OVC018 75 69.1 82% 75 29.94 1013.6
03 10:52 SW 6 10.00 Mostly Cloudy BKN005 72 69.1 91% 29.94 1013.8 0.11
03 09:52 Calm 10.00 Overcast BKN003 OVC065 68 66 93% 29.96 1014.3 0.01
03 08:52 Calm 1.50 Rain Fog/Mist BKN003 BKN027 OVC055 64 64 100% 29.98 1015.1 0.1
03 07:52 Calm 9.00 Overcast OVC003 64 63 64 62.1 96% 29.99 1015.4 0.27
03 06:52 Calm 10.00 Overcast OVC004 63 63 100% 29.99 1015.5
03 05:52 Calm 7.00 Light Rain OVC005 63 62.1 97% 29.98 1015.0 0.01
03 04:52 W 3 10.00 Overcast OVC007 63 62.1 97% 30 1015.7 0.01 0.26
03 03:52 Calm 10.00 Overcast OVC011 62.1 61 96% 30 1015.9 0.18
03 02:52 Calm 1.75 Heavy Rain Fog/Mist OVC017 63 60.1 90% 30.02 1016.5 0.07
03 01:52 Calm 10.00 Overcast OVC021 64 57.9 66.9 64 81% 30.06 1017.6
03 00:52 Calm 10.00 Overcast OVC023 64 59 84% 30.08 1018.3
02 23:52 Calm 10.00 Overcast OVC055 64 59 84% 30.08 1018.6
02 22:52 Calm 10.00 Overcast OVC070 64 60.1 87% 30.1 1019.2
02 21:52 W 3 10.00 Mostly Cloudy BKN060 64 59 84% 30.12 1019.8
02 20:52 Calm 10.00 Mostly Cloudy BKN075 66 59 78% 30.12 1019.7
02 19:52 SE 3 10.00 Overcast SCT060 OVC075 66.9 57.9 75 66.9 73% 30.12 1020.0
02 18:52 S 6 10.00 Overcast OVC065 69.1 57.9 68% 30.15 1020.7
02 17:52 Calm 10.00 Mostly Cloudy BKN060 70 55.9 61% 30.15 1020.8
02 16:52 SE 6 10.00 Fair CLR 71.1 55.9 59% 30.12 1019.9
02 15:52 SE 5 10.00 Overcast OVC060 72 53.1 52% 30.14 1020.6
02 14:52 S 8 10.00 Mostly Cloudy FEW036 BKN055 75 57 54% 78 30.14 1020.6
02 13:52 Vrbl 3 10.00 Partly Cloudy SCT033 73.9 59 73.9 62.1 60% 30.15 1020.9
02 12:52 Vrbl 7 10.00 Mostly Cloudy BKN065 73 57.9 59% 30.15 1020.9
02 11:52 Vrbl 6 10.00 Overcast OVC065 71.1 55.9 59% 30.17 1021.6
02 10:52 NE 8 10.00 Overcast OVC065 68 57.9 70% 30.17 1021.7
02 09:52 E 7 10.00 Overcast OVC060 66.9 59 76% 30.18 1021.7
02 08:52 NE 6 10.00 Overcast FEW011 OVC055 64 61 90% 30.16 1021.1
02 07:52 N 3 10.00 Overcast OVC046 62.1 59 62.1 59 90% 30.17 1021.5
02 06:52 N 3 10.00 Overcast OVC046 60.1 57.9 93% 30.16 1021.1
02 05:52 Calm 10.00 Overcast BKN044 OVC050 60.1 57.9 93% 30.15 1020.8
02 04:52 N 5 10.00 Partly Cloudy SCT055 60.1 57 90% 30.13 1020.3
02 03:52 N 3 10.00 Overcast OVC045 61 59 93% 30.13 1020.2
02 02:52 N 6 10.00 Overcast OVC047 61 59 93% 30.13 1020.1
02 01:52 N 6 10.00 Overcast FEW006 BKN049 OVC060 60.1 59 62.1 60.1 96% 30.13 1020.1
02 00:52 N 3 10.00 Overcast SCT009 OVC060 61 59 93% 30.11 1019.6
01 23:52 NE 3 10.00 Overcast OVC024 61 59 93% 30.1 1019.2
01 22:52 E 5 10.00 Overcast OVC006 61 59 93% 30.09 1018.7
01 20:52 E 5 10.00 Overcast OVC008 61 59 93% 30.08 1018.4
01 19:52 NE 6 10.00 Overcast OVC008 62.1 60.1 63 61 93% 30.06 1017.9 0.07
01 18:52 NE 5 7.00 Overcast OVC009 61 60.1 97% 30.06 1017.9
01 17:52 NE 6 1.75 Light Rain Fog/Mist FEW010 OVC023 61 59 93% 30.06 1017.9 0.07
01 15:52 NE 8 10.00 Overcast SCT012 OVC019 63 60.1 90% 30.04 1017.1
01 14:52 E 3 7.00 Overcast OVC012 63 60.1 90% 30.04 1017.1
01 13:52 Vrbl 3 6.00 Light Rain Fog/Mist BKN008 OVC012 63 61 68 63 93% 30.03 1016.7 0.08 0.77
01 12:52 SE 6 2.50 Fog/Mist OVC007 66.9 66 97% 30 1015.8
01 11:52 Calm 8.00 Light Rain SCT007 OVC014 66.9 66 97% 30.03 1016.7
01 10:52 E 5 10.00 Light Rain SCT011 OVC019 66.9 64.9 93% 30.03 1016.9 0.04 0.69
01 09:52 Calm 4.00 Rain Fog/Mist OVC027 66.9 64.9 93% 30.03 1016.7 0.03
01 08:52 S 3 1.25 Rain Fog/Mist FEW008 BKN034 OVC060 66 64.9 96% 30.04 1017.0 0.62
01 07:52 Calm 2.00 Heavy Rain Fog/Mist SCT008 BKN012 OVC024 66 64.9 66.9 66 96% 30.04 1017.0 0.09 0.09
01 05:52 Calm 10.00 Overcast FEW010 OVC034 66.9 63 87% 30.02 1016.5
01 04:52 Calm 10.00 Overcast BKN013 OVC035 66.9 63 87% 30.03 1016.7
01 03:52 Calm 10.00 Overcast OVC033 66.9 63 87% 30.05 1017.2
01 02:52 Calm 10.00 Overcast OVC034 66.9 63 87% 30.05 1017.5
01 01:52 Calm 10.00 Overcast BKN039 OVC050 66.9 62.1 69.1 66.9 84% 30.07 1018.2
01 00:52 Calm 10.00 Overcast OVC046 66.9 62.1 84% 30.08 1018.3
31 23:52 S 3 10.00 Overcast OVC050 66.9 62.1 84% 30.09 1018.7
31 22:52 Calm 10.00 Overcast OVC055 66.9 62.1 84% 30.09 1018.7
31 21:52 Calm 10.00 Overcast OVC060 68 61 78% 30.09 1018.7
31 20:52 S 3 10.00 Overcast OVC065 69.1 60.1 73% 30.09 1018.9
31 19:52 S 6 10.00 Overcast OVC080 69.1 61 78.1 69.1 76% 30.08 1018.6
31 18:52 S 7 10.00 Overcast OVC085 71.1 60.1 68% 30.1 1019.1
31 17:52 S 6 10.00 Mostly Cloudy FEW044 SCT095 BKN110 73.9 63 69% 30.09 1018.8
31 16:52 S 5 10.00 Mostly Cloudy BKN100 BKN120 77 57.9 52% 79 30.08 1018.4
31 15:52 S 6 10.00 Fair CLR 77 57 50% 79 30.08 1018.4
31 14:52 W 3 10.00 Fair CLR 75.9 55.9 50% 78 30.11 1019.3
31 13:52 Calm 10.00 Fair CLR 77 55.9 78.1 64 48% 79 30.13 1019.9
31 12:52 Calm 10.00 Fair CLR 75.9 55.9 50% 78 30.13 1020.1
Date Time (edt) Wind (mph) Vis. (mi.) Weather Sky Cond. Air Dwpt Max. Min. Relative Humidity Wind Chill (°F) Heat Index (°F) altimeter (in) sea level (mb) 1 hr 3 hr 6 hr
6 hour
Temperature (ºF) Pressure Precipitation (in)